createdAt,value
2023-01-29T00:01:23.960Z,102883.66
2023-01-29T00:03:52.234Z,102874.09
2023-01-29T00:06:19.280Z,102873.28
2023-01-29T00:08:47.099Z,102875.75
2023-01-29T00:11:14.193Z,102878.19
2023-01-29T00:13:41.134Z,102878.19
2023-01-29T00:16:08.217Z,102879.84
2023-01-29T00:18:39.187Z,102879.03
2023-01-29T00:21:22.236Z,102878.78
2023-01-29T00:23:50.047Z,102865.38
2023-01-29T00:26:17.733Z,102874.69
2023-01-29T00:28:47.984Z,102877.72
2023-01-29T00:31:20.304Z,102869.47
2023-01-29T00:33:47.819Z,102871.38
2023-01-29T00:36:18.302Z,102868.41
2023-01-29T00:38:54.647Z,102850.34
2023-01-29T00:41:42.234Z,102853.09
2023-01-29T00:44:28.131Z,102858.84
2023-01-29T00:46:55.161Z,102852.00
2023-01-29T00:49:22.457Z,102856.66
2023-01-29T00:52:09.476Z,102841.09
2023-01-29T00:54:36.559Z,102837.81
2023-01-29T00:57:04.249Z,102839.72
2023-01-29T00:59:32.034Z,102836.16
2023-01-29T01:02:17.648Z,102843.53
2023-01-29T01:04:44.580Z,102840.53
2023-01-29T01:09:56.301Z,102846.00
2023-01-29T01:12:23.263Z,102849.03
2023-01-29T01:14:51.014Z,102846.84
2023-01-29T01:17:18.010Z,102846.59
2023-01-29T01:19:45.217Z,102843.84
2023-01-29T01:22:12.454Z,102844.94
2023-01-29T01:24:39.478Z,102843.84
2023-01-29T01:27:06.967Z,102843.28
2023-01-29T01:29:33.918Z,102841.38
2023-01-29T01:32:01.097Z,102841.13
2023-01-29T01:34:28.554Z,102836.75
2023-01-29T01:36:58.918Z,102840.53
2023-01-29T01:39:25.926Z,102841.38
2023-01-29T01:41:53.736Z,102847.13
2023-01-29T01:44:53.658Z,102851.47
2023-01-29T01:47:41.910Z,102850.94
2023-01-29T01:50:14.892Z,102828.53
2023-01-29T01:52:47.018Z,102843.28
2023-01-29T01:55:20.323Z,102841.91
2023-01-29T01:57:52.855Z,102841.09
2023-01-29T02:00:21.804Z,102845.75
2023-01-29T02:03:07.478Z,102845.75
2023-01-29T02:05:55.099Z,102853.41
2023-01-29T02:09:03.820Z,102849.03
2023-01-29T02:11:31.237Z,102848.50
2023-01-29T02:13:58.662Z,102853.41
2023-01-29T02:16:26.323Z,102851.22
2023-01-29T02:18:53.661Z,102842.75
2023-01-29T02:21:29.275Z,102842.19
2023-01-29T02:24:24.018Z,102836.75
2023-01-29T02:27:07.073Z,102835.91
2023-01-29T02:30:12.218Z,102830.69
2023-01-29T02:32:54.494Z,102821.97
2023-01-29T02:35:32.426Z,102818.16
2023-01-29T02:38:08.540Z,102813.75
2023-01-29T02:40:44.079Z,102809.94
2023-01-29T02:43:14.265Z,102819.47
2023-01-29T02:45:51.527Z,102800.38
2023-01-29T02:48:25.591Z,102793.53
2023-01-29T02:51:06.963Z,102794.31
2023-01-29T02:53:58.377Z,102788.06
2023-01-29T02:56:37.042Z,102779.88
2023-01-29T02:59:12.411Z,102770.56
2023-01-29T03:01:48.737Z,102760.19
2023-01-29T03:04:22.860Z,102756.91
2023-01-29T03:06:55.026Z,102747.06
2023-01-29T03:09:37.666Z,102748.16
2023-01-29T03:12:28.485Z,102743.81
2023-01-29T03:15:12.435Z,102741.63
2023-01-29T03:18:08.638Z,102739.44
2023-01-29T03:20:50.018Z,102737.81
2023-01-29T03:23:50.062Z,102739.44
2023-01-29T03:26:40.486Z,102738.34
2023-01-29T03:29:28.503Z,102722.78
2023-01-29T03:32:06.942Z,102723.03
2023-01-29T03:34:42.080Z,102714.31
2023-01-29T03:37:31.223Z,102720.31
2023-01-29T03:39:59.025Z,102730.16
2023-01-29T03:42:35.093Z,102732.06
2023-01-29T03:45:23.630Z,102733.72
2023-01-29T03:48:20.318Z,102739.72
2023-01-29T03:51:03.502Z,102724.69
2023-01-29T03:53:44.708Z,102722.53
2023-01-29T03:56:37.377Z,102722.53
2023-01-29T03:59:21.533Z,102723.06
2023-01-29T04:02:28.623Z,102727.16
2023-01-29T04:05:06.175Z,102726.34
2023-01-29T04:07:41.531Z,102727.16
2023-01-29T04:10:14.281Z,102729.66
2023-01-29T04:12:50.166Z,102722.25
2023-01-29T04:15:19.259Z,102723.34
2023-01-29T04:17:53.243Z,102723.34
2023-01-29T04:20:28.255Z,102715.16
2023-01-29T04:22:56.002Z,102712.97
2023-01-29T04:25:29.380Z,102711.34
2023-01-29T04:28:09.706Z,102714.06
2023-01-29T04:30:52.700Z,102706.41
2023-01-29T04:33:25.979Z,102704.78
2023-01-29T04:36:18.165Z,102715.16
2023-01-29T04:38:59.121Z,102719.28
2023-01-29T04:41:34.271Z,102721.72
2023-01-29T04:44:04.056Z,102732.66
2023-01-29T04:46:52.641Z,102725.28
2023-01-29T04:49:31.411Z,102726.38
2023-01-29T04:52:21.917Z,102710.50
2023-01-29T04:55:05.041Z,102715.44
2023-01-29T04:57:46.375Z,102708.34
2023-01-29T05:00:20.095Z,102709.44
2023-01-29T05:02:48.294Z,102691.94
2023-01-29T05:05:20.187Z,102693.31
2023-01-29T05:07:48.570Z,102680.19
2023-01-29T05:10:20.343Z,102680.19
2023-01-29T05:12:53.015Z,102682.41
2023-01-29T05:15:25.919Z,102677.19
2023-01-29T05:17:54.582Z,102664.34
2023-01-29T05:20:22.084Z,102670.94
2023-01-29T05:22:49.503Z,102662.44
2023-01-29T05:25:29.675Z,102664.09
2023-01-29T05:28:16.364Z,102652.31
2023-01-29T05:30:51.616Z,102648.78
2023-01-29T05:33:21.753Z,102649.59
2023-01-29T05:35:48.848Z,102655.06
2023-01-29T05:38:16.252Z,102654.78
2023-01-29T05:40:43.458Z,102652.88
2023-01-29T05:43:25.044Z,102647.69
2023-01-29T05:46:00.434Z,102637.28
2023-01-29T05:48:29.252Z,102620.09
2023-01-29T05:51:04.346Z,102611.91
2023-01-29T05:53:32.269Z,102613.28
2023-01-29T05:56:02.061Z,102616.28
2023-01-29T05:58:33.364Z,102607.56
2023-01-29T06:01:15.885Z,102610.84
2023-01-29T06:03:43.503Z,102605.66
2023-01-29T06:06:10.518Z,102605.91
2023-01-29T06:08:37.476Z,102618.75
2023-01-29T06:11:04.881Z,102612.47
2023-01-29T06:13:31.889Z,102610.56
2023-01-29T06:15:58.802Z,102590.91
2023-01-29T06:18:25.821Z,102595.84
2023-01-29T06:20:52.683Z,102600.19
2023-01-29T06:23:20.031Z,102608.66
2023-01-29T06:25:46.966Z,102608.94
2023-01-29T06:28:13.731Z,102608.13
2023-01-29T06:30:40.596Z,102604.03
2023-01-29T06:33:07.559Z,102603.47
2023-01-29T06:35:34.374Z,102602.94
2023-01-29T06:38:01.197Z,102601.28
2023-01-29T06:40:28.273Z,102606.75
2023-01-29T06:42:55.135Z,102607.03
2023-01-29T06:45:22.230Z,102605.91
2023-01-29T06:47:49.587Z,102598.84
2023-01-29T06:50:17.544Z,102601.56
2023-01-29T06:52:44.583Z,102589.28
2023-01-29T06:55:11.830Z,102591.75
2023-01-29T06:57:38.663Z,102590.38
2023-01-29T07:00:06.611Z,102592.00
2023-01-29T07:02:33.599Z,102586.00
2023-01-29T07:05:00.493Z,102580.56
2023-01-29T07:07:27.349Z,102570.72
2023-01-29T07:09:54.559Z,102571.81
2023-01-29T07:12:21.510Z,102576.19
2023-01-29T07:14:48.567Z,102575.09
2023-01-29T07:17:15.612Z,102573.44
2023-01-29T07:19:42.438Z,102572.38
2023-01-29T07:22:09.277Z,102575.09
2023-01-29T07:24:36.660Z,102575.63
2023-01-29T07:27:03.607Z,102571.25
2023-01-29T07:29:30.468Z,102566.63
2023-01-29T07:31:57.647Z,102565.25
2023-01-29T07:34:24.565Z,102566.63
2023-01-29T07:36:54.689Z,102561.72
2023-01-29T07:39:22.094Z,102557.63
2023-01-29T07:41:49.085Z,102550.81
2023-01-29T07:44:16.904Z,102545.59
2023-01-29T07:46:44.329Z,102551.88
2023-01-29T07:49:11.211Z,102553.78
2023-01-29T07:51:38.032Z,102556.50
2023-01-29T07:54:05.092Z,102548.91
2023-01-29T07:56:31.971Z,102551.63
2023-01-29T07:58:59.031Z,102559.53
2023-01-29T08:01:26.169Z,102557.31
2023-01-29T08:03:53.148Z,102560.06
2023-01-29T08:06:20.960Z,102560.88
2023-01-29T08:08:48.188Z,102549.97
2023-01-29T08:11:15.593Z,102548.59
2023-01-29T08:13:42.737Z,102546.69
2023-01-29T08:16:09.884Z,102540.69
2023-01-29T08:18:38.162Z,102537.13
2023-01-29T08:21:05.379Z,102534.41
2023-01-29T08:23:33.053Z,102537.66
2023-01-29T08:26:00.126Z,102527.56
2023-01-29T08:28:27.429Z,102524.00
2023-01-29T08:30:54.892Z,102525.38
2023-01-29T08:33:29.796Z,102519.94
2023-01-29T08:36:04.561Z,102524.84
2023-01-29T08:38:31.546Z,102513.91
2023-01-29T08:40:58.373Z,102516.34
2023-01-29T08:43:25.989Z,102510.06
2023-01-29T08:45:52.872Z,102512.50
2023-01-29T08:48:20.137Z,102507.28
2023-01-29T08:50:47.531Z,102510.84
2023-01-29T08:53:14.909Z,102514.66
2023-01-29T08:55:42.004Z,102501.31
2023-01-29T08:58:11.545Z,102505.09
2023-01-29T09:00:38.756Z,102498.00
2023-01-29T09:03:07.817Z,102503.44
2023-01-29T09:05:38.874Z,102501.50
2023-01-29T09:08:07.289Z,102509.72
2023-01-29T09:10:34.799Z,102508.88
2023-01-29T09:13:02.230Z,102508.31
2023-01-29T09:15:29.255Z,102503.94
2023-01-29T09:17:56.177Z,102487.00
2023-01-29T09:20:23.491Z,102494.66
2023-01-29T09:22:53.615Z,102493.56
2023-01-29T09:25:21.499Z,102487.81
2023-01-29T09:27:48.721Z,102492.72
2023-01-29T09:30:15.839Z,102484.28
2023-01-29T09:32:53.255Z,102480.72
2023-01-29T09:35:24.654Z,102480.44
2023-01-29T09:37:52.418Z,102478.81
2023-01-29T09:40:42.061Z,102482.88
2023-01-29T09:43:23.711Z,102476.56
2023-01-29T09:46:39.204Z,102464.00
2023-01-29T09:49:25.582Z,102470.00
2023-01-29T09:52:05.657Z,102465.59
2023-01-29T09:54:55.130Z,102472.75
2023-01-29T09:57:51.316Z,102462.88
2023-01-29T10:00:39.869Z,102464.81
2023-01-29T10:03:24.497Z,102460.94
2023-01-29T10:05:57.237Z,102477.66
2023-01-29T10:08:42.856Z,102486.13
2023-01-29T10:11:42.928Z,102480.38
2023-01-29T10:14:20.725Z,102469.47
2023-01-29T10:17:06.159Z,102461.50
2023-01-29T10:19:33.515Z,102460.44
2023-01-29T10:22:24.764Z,102456.59
2023-01-29T10:25:00.575Z,102455.78
2023-01-29T10:27:32.543Z,102453.88
2023-01-29T10:30:02.966Z,102447.28
2023-01-29T10:32:31.194Z,102450.84
2023-01-29T10:35:03.680Z,102439.91
2023-01-29T10:37:41.867Z,102434.97
2023-01-29T10:40:37.395Z,102435.22
2023-01-29T10:43:13.091Z,102429.44
2023-01-29T10:46:06.582Z,102428.06
2023-01-29T10:49:11.976Z,102422.91
2023-01-29T10:51:52.263Z,102407.53
2023-01-29T10:54:48.268Z,102409.69
2023-01-29T10:57:41.986Z,102414.84
2023-01-29T11:00:24.106Z,102403.66
2023-01-29T11:02:52.731Z,102392.66
2023-01-29T11:05:27.374Z,102396.75
2023-01-29T11:08:05.113Z,102394.53
2023-01-29T11:10:37.373Z,102389.03
2023-01-29T11:13:05.501Z,102390.91
2023-01-29T11:15:36.727Z,102376.66
2023-01-29T11:18:16.177Z,102371.94
2023-01-29T11:20:45.217Z,102368.63
2023-01-29T11:23:31.319Z,102366.13
2023-01-29T11:25:59.926Z,102366.88
2023-01-29T11:28:59.400Z,102354.34
2023-01-29T11:31:30.067Z,102359.00
2023-01-29T11:34:16.814Z,102349.91
2023-01-29T11:36:45.043Z,102355.34
2023-01-29T11:39:17.846Z,102350.16
2023-01-29T11:42:13.493Z,102348.53
2023-01-29T11:44:42.996Z,102341.69
2023-01-29T11:47:27.771Z,102338.13
2023-01-29T11:50:01.332Z,102331.88
2023-01-29T11:52:41.055Z,102329.47
2023-01-29T11:55:20.408Z,102319.94
2023-01-29T11:57:52.888Z,102311.72
2023-01-29T12:00:27.739Z,102309.59
2023-01-29T12:02:54.566Z,102304.94
2023-01-29T12:05:24.980Z,102298.38
2023-01-29T12:07:55.340Z,102289.94
2023-01-29T12:10:37.514Z,102286.34
2023-01-29T12:13:07.118Z,102286.34
2023-01-29T12:15:34.114Z,102276.00
2023-01-29T12:18:20.026Z,102269.97
2023-01-29T12:20:54.695Z,102257.41
2023-01-29T12:23:59.472Z,102253.03
2023-01-29T12:26:49.908Z,102247.28
2023-01-29T12:29:32.544Z,102228.94
2023-01-29T12:32:14.746Z,102229.75
2023-01-29T12:34:52.592Z,102219.41
2023-01-29T12:37:26.008Z,102215.25
2023-01-29T12:39:53.187Z,102210.63
2023-01-29T12:42:24.557Z,102208.97
2023-01-29T12:44:54.387Z,102205.44
2023-01-29T12:47:44.297Z,102197.84
2023-01-29T12:50:30.321Z,102197.28
2023-01-29T12:53:12.551Z,102193.22
2023-01-29T12:55:54.065Z,102185.59
2023-01-29T12:58:28.763Z,102178.47
2023-01-29T13:01:01.462Z,102169.19
2023-01-29T13:03:52.013Z,102165.34
2023-01-29T13:06:42.826Z,102160.13
2023-01-29T13:09:20.128Z,102160.47
2023-01-29T13:12:11.506Z,102159.47
2023-01-29T13:14:44.539Z,102151.34
2023-01-29T13:17:21.901Z,102163.53
2023-01-29T13:19:55.118Z,102147.25
2023-01-29T13:22:28.291Z,102151.44
2023-01-29T13:25:04.689Z,102141.34
2023-01-29T13:27:35.273Z,102142.47
2023-01-29T13:30:02.882Z,102135.59
2023-01-29T13:32:32.678Z,102138.34
2023-01-29T13:35:03.539Z,102124.44
2023-01-29T13:37:48.477Z,102127.44
2023-01-29T13:40:27.206Z,102110.47
2023-01-29T13:42:58.397Z,102111.34
2023-01-29T13:45:31.276Z,102116.31
2023-01-29T13:48:20.835Z,102101.84
2023-01-29T13:50:48.572Z,102099.44
2023-01-29T13:53:28.602Z,102099.66
2023-01-29T13:55:55.891Z,102090.34
2023-01-29T13:58:31.976Z,102086.84
2023-01-29T14:01:01.913Z,102080.00
2023-01-29T14:03:39.910Z,102086.59
2023-01-29T14:06:38.626Z,102074.53
2023-01-29T14:09:32.575Z,102084.63
2023-01-29T14:12:00.106Z,102078.31
2023-01-29T14:14:49.077Z,102073.63
2023-01-29T14:17:18.804Z,102070.06
2023-01-29T14:19:55.488Z,102061.03
2023-01-29T14:22:27.286Z,102056.31
2023-01-29T14:24:58.579Z,102055.16
2023-01-29T14:27:26.084Z,102054.03
2023-01-29T14:30:00.839Z,102047.47
2023-01-29T14:32:28.314Z,102045.25
2023-01-29T14:35:05.618Z,102038.69
2023-01-29T14:37:41.460Z,102020.66
2023-01-29T14:40:11.568Z,102027.81
2023-01-29T14:42:44.023Z,102021.88
2023-01-29T14:45:15.177Z,102025.19
2023-01-29T14:47:43.577Z,102030.16
2023-01-29T14:50:28.732Z,102031.19
2023-01-29T14:53:21.463Z,102029.63
2023-01-29T14:56:10.397Z,102029.88
2023-01-29T14:58:51.136Z,102025.66
2023-01-29T15:01:47.598Z,102026.28
2023-01-29T15:04:47.704Z,102023.13
2023-01-29T15:07:32.531Z,102017.00
2023-01-29T15:10:23.351Z,102005.19
2023-01-29T15:13:19.269Z,102008.16
2023-01-29T15:15:56.453Z,102008.88
2023-01-29T15:18:35.261Z,102002.97
2023-01-29T15:21:05.615Z,102002.53
2023-01-29T15:23:34.659Z,101997.72
2023-01-29T15:26:04.511Z,101995.72
2023-01-29T15:28:34.306Z,101999.16
2023-01-29T15:31:04.453Z,101989.81
2023-01-29T15:33:32.714Z,101996.13
2023-01-29T15:36:07.387Z,101983.25
2023-01-29T15:38:35.564Z,101984.34
2023-01-29T15:41:16.469Z,101989.53
2023-01-29T15:43:45.856Z,101977.53
2023-01-29T15:46:23.147Z,101983.50
2023-01-29T15:48:51.843Z,101972.41
2023-01-29T15:51:25.778Z,101968.59
2023-01-29T15:54:15.896Z,101965.50
2023-01-29T15:56:54.541Z,101960.03
2023-01-29T15:59:27.331Z,101956.97
2023-01-29T16:01:54.480Z,101952.84
2023-01-29T16:04:29.017Z,101958.47
2023-01-29T16:06:58.307Z,101952.91
2023-01-29T16:09:28.030Z,101954.72
2023-01-29T16:11:59.195Z,101947.03
2023-01-29T16:14:28.579Z,101941.84
2023-01-29T16:16:55.684Z,101943.50
2023-01-29T16:19:25.722Z,101946.75
2023-01-29T16:22:01.663Z,101946.81
2023-01-29T16:24:31.380Z,101940.16
2023-01-29T16:27:02.152Z,101934.97
2023-01-29T16:29:33.087Z,101940.16
2023-01-29T16:32:02.606Z,101928.50
2023-01-29T16:34:34.887Z,101921.97
2023-01-29T16:37:04.709Z,101900.19
2023-01-29T16:39:39.493Z,101910.09
2023-01-29T16:42:13.009Z,101906.53
2023-01-29T16:44:45.512Z,101895.09
2023-01-29T16:47:15.242Z,101890.75
2023-01-29T16:49:50.237Z,101896.19
2023-01-29T16:52:25.072Z,101896.75
2023-01-29T16:54:59.947Z,101902.22
2023-01-29T16:57:32.055Z,101893.19
2023-01-29T17:00:02.729Z,101898.66
2023-01-29T17:02:33.645Z,101895.09
2023-01-29T17:05:05.836Z,101887.72
2023-01-29T17:07:34.761Z,101877.06
2023-01-29T17:10:04.665Z,101888.31
2023-01-29T17:12:33.724Z,101879.56
2023-01-29T17:15:04.062Z,101872.19
2023-01-29T17:17:33.220Z,101873.84
2023-01-29T17:20:12.631Z,101869.78
2023-01-29T17:22:40.121Z,101861.84
2023-01-29T17:25:07.436Z,101858.03
2023-01-29T17:27:34.451Z,101853.38
2023-01-29T17:30:01.538Z,101847.91
2023-01-29T17:32:43.897Z,101855.28
2023-01-29T17:35:16.785Z,101853.16
2023-01-29T17:37:44.433Z,101860.03
2023-01-29T17:40:21.990Z,101851.81
2023-01-29T17:42:48.820Z,101831.88
2023-01-29T17:45:16.073Z,101836.03
2023-01-29T17:47:43.623Z,101825.56
2023-01-29T17:50:21.507Z,101812.03
2023-01-29T17:52:50.100Z,101799.84
2023-01-29T17:55:17.852Z,101791.44
2023-01-29T17:57:45.057Z,101796.69
2023-01-29T18:00:18.490Z,101793.72
2023-01-29T18:02:45.792Z,101780.38
2023-01-29T18:05:13.874Z,101770.06
2023-01-29T18:07:43.017Z,101769.00
2023-01-29T18:10:16.689Z,101769.16
2023-01-29T18:12:44.376Z,101769.38
2023-01-29T18:15:11.910Z,101773.13
2023-01-29T18:17:40.428Z,101769.81
2023-01-29T18:20:21.939Z,101775.47
2023-01-29T18:22:51.036Z,101773.06
2023-01-29T18:25:18.464Z,101773.56
2023-01-29T18:27:46.671Z,101770.03
2023-01-29T18:30:14.385Z,101760.72
2023-01-29T18:32:41.587Z,101771.34
2023-01-29T18:35:09.295Z,101766.41
2023-01-29T18:37:36.525Z,101780.91
2023-01-29T18:40:04.229Z,101781.41
2023-01-29T18:42:33.497Z,101774.53
2023-01-29T18:45:00.786Z,101766.63
2023-01-29T18:47:27.819Z,101752.53
2023-01-29T18:49:55.282Z,101741.31
2023-01-29T18:52:22.522Z,101727.22
2023-01-29T18:54:50.103Z,101729.81
2023-01-29T18:58:27.893Z,101724.66
2023-01-29T19:00:04.637Z,101709.06
2023-01-29T19:02:31.700Z,101703.03
2023-01-29T19:04:58.617Z,101702.44
2023-01-29T19:07:25.882Z,101709.53
2023-01-29T19:09:53.210Z,101721.22
2023-01-29T19:12:22.969Z,101717.41
2023-01-29T19:14:50.054Z,101724.50
2023-01-29T19:17:17.247Z,101730.97
2023-01-29T19:19:44.171Z,101735.34
2023-01-29T19:22:11.305Z,101729.59
2023-01-29T19:24:39.074Z,101727.34
2023-01-29T19:27:06.749Z,101720.81
2023-01-29T19:29:33.940Z,101723.72
2023-01-29T19:32:01.352Z,101728.00
2023-01-29T19:34:28.204Z,101732.06
2023-01-29T19:36:55.328Z,101724.38
2023-01-29T19:39:22.588Z,101697.88
2023-01-29T19:41:50.062Z,101685.31
2023-01-29T19:44:17.193Z,101679.84
2023-01-29T19:46:44.658Z,101682.28
2023-01-29T19:49:11.724Z,101682.78
2023-01-29T19:51:40.233Z,101684.94
2023-01-29T19:54:07.392Z,101698.81
2023-01-29T19:56:35.303Z,101695.97
2023-01-29T19:59:02.407Z,101707.13
2023-01-29T20:01:29.966Z,101704.59
2023-01-29T20:03:57.831Z,101690.34
2023-01-29T20:06:27.474Z,101693.78
2023-01-29T20:08:54.579Z,101693.19
2023-01-29T20:11:23.339Z,101681.31
2023-01-29T20:13:51.903Z,101671.31
2023-01-29T20:16:20.043Z,101669.00
2023-01-29T20:18:47.565Z,101671.81
2023-01-29T20:21:17.523Z,101653.16
2023-01-29T20:23:45.939Z,101655.00
2023-01-29T20:26:15.807Z,101673.22
2023-01-29T20:28:45.167Z,101676.16
2023-01-29T20:31:12.150Z,101674.44
2023-01-29T20:33:40.518Z,101688.81
2023-01-29T20:36:10.083Z,101681.13
2023-01-29T20:38:37.690Z,101670.97
2023-01-29T20:41:16.817Z,101664.91
2023-01-29T20:43:44.941Z,101651.22
2023-01-29T20:46:12.587Z,101642.09
2023-01-29T20:48:41.721Z,101650.47
2023-01-29T20:51:15.400Z,101647.16
2023-01-29T20:53:43.549Z,101646.44
2023-01-29T20:56:11.418Z,101641.97
2023-01-29T20:58:40.944Z,101640.25
2023-01-29T21:01:10.681Z,101625.13
2023-01-29T21:03:39.809Z,101619.34
2023-01-29T21:06:08.688Z,101615.47
2023-01-29T21:08:36.902Z,101602.31
2023-01-29T21:11:05.287Z,101578.16
2023-01-29T21:13:32.144Z,101559.81
2023-01-29T21:15:59.742Z,101560.28
2023-01-29T21:18:27.062Z,101538.09
2023-01-29T21:20:54.527Z,101534.06
2023-01-29T21:23:22.650Z,101544.19
2023-01-29T21:25:50.002Z,101543.06
2023-01-29T21:28:17.234Z,101535.66
2023-01-29T21:30:44.359Z,101529.06
2023-01-29T21:33:11.454Z,101512.44
2023-01-29T21:35:38.606Z,101502.94
2023-01-29T21:38:05.847Z,101484.69
2023-01-29T21:40:33.562Z,101474.69
2023-01-29T21:43:13.004Z,101510.59
2023-01-29T21:45:41.224Z,101507.22
2023-01-29T21:48:09.873Z,101493.72
2023-01-29T21:50:37.999Z,101481.97
2023-01-29T21:53:05.122Z,101485.22
2023-01-29T21:55:32.848Z,101491.19
2023-01-29T21:58:00.621Z,101490.06
2023-01-29T22:00:28.316Z,101502.50
2023-01-29T22:02:55.919Z,101506.72
2023-01-29T22:05:23.321Z,101500.91
2023-01-29T22:07:51.840Z,101495.63
2023-01-29T22:10:20.613Z,101494.81
2023-01-29T22:12:48.487Z,101464.22
2023-01-29T22:15:15.872Z,101428.63
2023-01-29T22:17:42.876Z,101418.28
2023-01-29T22:20:14.696Z,101397.84
2023-01-29T22:22:42.210Z,101387.53
2023-01-29T22:25:09.671Z,101406.97
2023-01-29T22:27:36.871Z,101398.94
2023-01-29T22:30:05.572Z,101409.13
2023-01-29T22:32:33.058Z,101417.84
2023-01-29T22:35:00.149Z,101409.31
2023-01-29T22:37:27.486Z,101430.28
2023-01-29T22:39:54.856Z,101440.59
2023-01-29T22:42:21.809Z,101463.81
2023-01-29T22:44:48.896Z,101451.72
2023-01-29T22:47:16.331Z,101439.00
2023-01-29T22:49:45.573Z,101445.13
2023-01-29T22:52:12.931Z,101442.91
2023-01-29T22:54:42.001Z,101444.69
2023-01-29T22:57:11.418Z,101442.13
2023-01-29T22:59:38.668Z,101437.28
2023-01-29T23:02:06.970Z,101417.81
2023-01-29T23:04:33.876Z,101423.28
2023-01-29T23:07:01.040Z,101431.50
2023-01-29T23:09:28.116Z,101428.78
2023-01-29T23:11:55.042Z,101425.69
2023-01-29T23:14:22.282Z,101417.03
2023-01-29T23:16:50.046Z,101416.38
2023-01-29T23:19:17.073Z,101406.22
2023-01-29T23:22:04.410Z,101401.06
2023-01-29T23:24:31.389Z,101392.69
2023-01-29T23:27:16.839Z,101412.84
2023-01-29T23:29:45.880Z,101392.53
2023-01-29T23:32:15.690Z,101403.50
2023-01-29T23:34:42.632Z,101391.41
2023-01-29T23:37:10.017Z,101398.81
2023-01-29T23:39:37.011Z,101379.94
2023-01-29T23:42:04.411Z,101367.41
2023-01-29T23:44:32.541Z,101353.19
2023-01-29T23:46:59.530Z,101343.03
2023-01-29T23:49:26.555Z,101340.47
2023-01-29T23:51:53.786Z,101339.81
2023-01-29T23:54:21.384Z,101326.59
2023-01-29T23:56:48.501Z,101329.31
2023-01-29T23:59:16.158Z,101317.25
